createdAt,value
2017-06-19T00:01:06.184Z,15.20
2017-06-19T00:03:34.671Z,15.30
2017-06-19T00:06:03.097Z,15.30
2017-06-19T00:08:31.528Z,15.20
2017-06-19T00:10:59.986Z,15.20
2017-06-19T00:13:29.187Z,15.10
2017-06-19T00:15:58.366Z,15.20
2017-06-19T00:18:26.811Z,15.10
2017-06-19T00:21:00.731Z,15.20
2017-06-19T00:23:34.667Z,15.10
2017-06-19T00:26:03.095Z,15.00
2017-06-19T00:28:31.515Z,14.80
2017-06-19T00:30:59.954Z,14.80
2017-06-19T00:33:28.412Z,14.80
2017-06-19T00:35:57.614Z,14.60
2017-06-19T00:38:26.954Z,14.50
2017-06-19T00:40:55.391Z,14.50
2017-06-19T00:43:24.570Z,14.50
2017-06-19T00:45:53.031Z,14.50
2017-06-19T00:48:21.470Z,14.50
2017-06-19T00:50:50.464Z,14.40
2017-06-19T00:53:18.892Z,14.20
2017-06-19T00:55:47.419Z,14.20
2017-06-19T00:58:16.622Z,14.20
2017-06-19T01:00:45.822Z,14.20
2017-06-19T01:03:15.026Z,14.20
2017-06-19T01:05:43.464Z,14.20
2017-06-19T01:08:11.951Z,14.20
2017-06-19T01:10:40.390Z,14.20
2017-06-19T01:13:08.823Z,14.40
2017-06-19T01:15:37.330Z,14.30
2017-06-19T01:18:06.770Z,14.00
2017-06-19T01:20:35.227Z,13.90
2017-06-19T01:23:03.672Z,13.80
2017-06-19T01:25:32.098Z,13.90
2017-06-19T01:28:00.783Z,14.00
2017-06-19T01:30:29.219Z,14.00
2017-06-19T01:32:57.300Z,14.00
2017-06-19T01:35:25.741Z,13.90
2017-06-19T01:37:54.187Z,13.70
2017-06-19T01:40:23.399Z,13.40
2017-06-19T01:42:51.644Z,13.30
2017-06-19T01:45:20.062Z,13.40
2017-06-19T01:47:48.523Z,13.40
2017-06-19T01:50:17.359Z,13.60
2017-06-19T01:52:45.799Z,13.50
2017-06-19T01:55:14.986Z,13.40
2017-06-19T01:57:44.190Z,13.40
2017-06-19T02:00:13.374Z,13.30
2017-06-19T02:02:41.809Z,13.20
2017-06-19T02:05:10.361Z,13.40
2017-06-19T02:07:39.566Z,13.40
2017-06-19T02:10:08.002Z,13.40
2017-06-19T02:12:36.435Z,13.40
2017-06-19T02:15:04.876Z,13.30
2017-06-19T02:17:33.295Z,13.50
2017-06-19T02:20:01.727Z,13.60
2017-06-19T02:22:30.175Z,13.50
2017-06-19T02:24:58.587Z,13.40
2017-06-19T02:27:26.708Z,13.40
2017-06-19T02:29:55.142Z,13.30
2017-06-19T02:32:23.567Z,13.20
2017-06-19T02:34:52.887Z,13.20
2017-06-19T02:37:21.338Z,13.10
2017-06-19T02:39:49.761Z,13.20
2017-06-19T02:42:18.278Z,13.30
2017-06-19T02:44:46.894Z,13.50
2017-06-19T02:47:16.075Z,13.50
2017-06-19T02:49:44.511Z,13.50
2017-06-19T02:52:12.583Z,13.60
2017-06-19T02:54:41.134Z,13.60
2017-06-19T02:57:10.334Z,13.20
2017-06-19T02:59:39.535Z,13.00
2017-06-19T03:02:08.735Z,13.00
2017-06-19T03:04:38.043Z,13.10
2017-06-19T03:07:06.482Z,13.10
2017-06-19T03:09:34.183Z,13.20
2017-06-19T03:12:03.446Z,13.10
2017-06-19T03:14:31.886Z,13.00
2017-06-19T03:17:00.319Z,12.90
2017-06-19T03:19:28.759Z,12.80
2017-06-19T03:21:57.212Z,12.80
2017-06-19T03:24:26.407Z,12.50
2017-06-19T03:26:55.608Z,12.60
2017-06-19T03:29:24.803Z,12.70
2017-06-19T03:31:53.995Z,12.80
2017-06-19T03:34:23.183Z,12.90
2017-06-19T03:36:51.623Z,12.90
2017-06-19T03:39:20.038Z,12.90
2017-06-19T03:41:48.490Z,12.80
2017-06-19T03:44:16.923Z,12.70
2017-06-19T03:46:46.120Z,12.50
2017-06-19T03:49:15.331Z,12.50
2017-06-19T03:51:43.759Z,12.50
2017-06-19T03:54:12.194Z,12.70
2017-06-19T03:56:40.632Z,12.70
2017-06-19T03:59:09.071Z,12.80
2017-06-19T04:01:37.511Z,12.90
2017-06-19T04:04:05.930Z,12.90
2017-06-19T04:06:34.371Z,12.90
2017-06-19T04:09:02.812Z,12.80
2017-06-19T04:11:31.371Z,12.90
2017-06-19T04:13:59.796Z,13.00
2017-06-19T04:16:28.234Z,13.10
2017-06-19T04:18:56.666Z,13.30
2017-06-19T04:21:25.130Z,13.30
2017-06-19T04:23:53.674Z,13.20
2017-06-19T04:26:22.127Z,13.30
2017-06-19T04:28:50.660Z,13.30
2017-06-19T04:31:19.179Z,13.40
2017-06-19T04:33:47.636Z,13.50
2017-06-19T04:36:16.072Z,13.60
2017-06-19T04:38:45.279Z,13.70
2017-06-19T04:41:14.465Z,13.60
2017-06-19T04:43:42.916Z,13.50
2017-06-19T04:46:11.399Z,13.70
2017-06-19T04:48:39.831Z,13.90
2017-06-19T04:51:09.060Z,14.30
2017-06-19T04:53:37.468Z,14.30
2017-06-19T04:56:05.908Z,14.40
2017-06-19T04:58:34.327Z,14.70
2017-06-19T05:01:02.854Z,14.70
2017-06-19T05:03:32.052Z,15.00
2017-06-19T05:06:01.247Z,15.20
2017-06-19T05:08:30.443Z,15.40
2017-06-19T05:10:59.628Z,15.60
2017-06-19T05:13:28.139Z,15.50
2017-06-19T05:15:57.319Z,15.90
2017-06-19T05:18:25.767Z,15.80
2017-06-19T05:20:54.191Z,16.00
2017-06-19T05:23:23.391Z,16.30
2017-06-19T05:25:52.870Z,16.40
2017-06-19T05:28:21.327Z,16.40
2017-06-19T05:30:49.871Z,16.50
2017-06-19T05:33:18.299Z,16.70
2017-06-19T05:35:46.740Z,16.90
2017-06-19T05:38:15.311Z,16.90
2017-06-19T05:40:44.507Z,17.20
2017-06-19T05:43:13.717Z,17.30
2017-06-19T05:45:42.200Z,17.30
2017-06-19T05:48:11.439Z,17.40
2017-06-19T05:50:39.883Z,17.40
2017-06-19T05:53:08.315Z,17.50
2017-06-19T05:55:36.737Z,17.60
2017-06-19T05:58:05.922Z,17.70
2017-06-19T06:00:35.173Z,17.80
2017-06-19T06:03:03.586Z,17.70
2017-06-19T06:05:32.043Z,17.90
2017-06-19T06:08:01.151Z,17.90
2017-06-19T06:10:29.595Z,18.10
2017-06-19T06:12:58.015Z,18.10
2017-06-19T06:15:26.475Z,18.30
2017-06-19T06:17:54.986Z,18.40
2017-06-19T06:20:23.431Z,18.40
2017-06-19T06:22:51.848Z,18.50
2017-06-19T06:25:20.303Z,18.50
2017-06-19T06:27:48.720Z,18.60
2017-06-19T06:30:17.286Z,18.70
2017-06-19T06:32:45.751Z,18.80
2017-06-19T06:35:14.176Z,19.00
2017-06-19T06:37:42.587Z,19.10
2017-06-19T06:40:11.031Z,19.10
2017-06-19T06:42:39.496Z,19.20
2017-06-19T06:45:07.935Z,19.30
2017-06-19T06:47:36.355Z,19.30
2017-06-19T06:50:04.767Z,19.50
2017-06-19T06:52:33.215Z,19.60
2017-06-19T06:55:01.686Z,19.70
2017-06-19T06:57:30.164Z,19.90
2017-06-19T06:59:58.620Z,19.90
2017-06-19T07:02:27.036Z,20.00
2017-06-19T07:04:55.480Z,20.00
2017-06-19T07:07:23.891Z,20.20
2017-06-19T07:09:52.336Z,20.20
2017-06-19T07:12:20.761Z,20.60
2017-06-19T07:14:49.178Z,20.60
2017-06-19T07:17:17.636Z,20.60
2017-06-19T07:19:46.063Z,20.70
2017-06-19T07:22:14.505Z,20.70
2017-06-19T07:24:42.923Z,21.10
2017-06-19T07:27:12.105Z,21.20
2017-06-19T07:29:40.547Z,21.10
2017-06-19T07:32:08.959Z,21.20
2017-06-19T07:34:37.611Z,21.20
2017-06-19T07:37:06.018Z,21.20
2017-06-19T07:39:34.444Z,21.30
2017-06-19T07:42:02.927Z,21.30
2017-06-19T07:44:31.457Z,21.50
2017-06-19T07:46:59.912Z,21.50
2017-06-19T07:49:28.500Z,21.80
2017-06-19T07:51:56.947Z,21.70
2017-06-19T07:54:26.230Z,21.80
2017-06-19T07:56:54.767Z,21.70
2017-06-19T07:59:23.864Z,21.90
2017-06-19T08:01:52.314Z,21.00
2017-06-19T08:04:20.727Z,22.00
2017-06-19T08:06:49.168Z,22.20
2017-06-19T08:09:17.587Z,22.30
2017-06-19T08:11:46.018Z,22.40
2017-06-19T08:14:14.484Z,22.40
2017-06-19T08:16:42.909Z,22.30
2017-06-19T08:19:11.346Z,22.50
2017-06-19T08:21:45.239Z,22.60
2017-06-19T08:24:13.644Z,22.50
2017-06-19T08:26:42.060Z,22.70
2017-06-19T08:29:10.476Z,22.80
2017-06-19T08:31:38.916Z,22.90
2017-06-19T08:34:07.350Z,22.90
2017-06-19T08:36:35.761Z,23.20
2017-06-19T08:39:03.351Z,23.40
2017-06-19T08:41:31.876Z,23.30
2017-06-19T08:44:00.432Z,23.40
2017-06-19T08:46:28.847Z,23.40
2017-06-19T08:48:57.269Z,23.60
2017-06-19T08:51:25.719Z,23.80
2017-06-19T08:53:54.147Z,23.70
2017-06-19T08:56:22.636Z,23.70
2017-06-19T08:58:51.072Z,23.70
2017-06-19T09:01:20.183Z,24.00
2017-06-19T09:03:48.427Z,24.00
2017-06-19T09:06:16.839Z,24.00
2017-06-19T09:08:45.276Z,24.00
2017-06-19T09:11:13.793Z,23.80
2017-06-19T09:13:42.231Z,24.30
2017-06-19T09:16:10.667Z,24.30
2017-06-19T09:18:39.122Z,24.20
2017-06-19T09:21:07.551Z,24.50
2017-06-19T09:23:35.991Z,24.40
2017-06-19T09:26:04.568Z,24.60
2017-06-19T09:28:33.002Z,24.70
2017-06-19T09:31:01.431Z,24.70
2017-06-19T09:33:29.912Z,24.50
2017-06-19T09:35:58.344Z,24.70
2017-06-19T09:38:26.776Z,24.70
2017-06-19T09:40:55.208Z,24.60
2017-06-19T09:43:23.628Z,24.80
2017-06-19T09:45:52.071Z,25.00
2017-06-19T09:48:20.492Z,24.90
2017-06-19T09:50:48.940Z,24.70
2017-06-19T09:53:17.363Z,24.50
2017-06-19T09:55:45.824Z,24.60
2017-06-19T09:58:14.231Z,25.10
2017-06-19T10:00:42.647Z,25.20
2017-06-19T10:03:11.484Z,25.10
2017-06-19T10:05:39.940Z,25.10
2017-06-19T10:08:08.363Z,25.20
2017-06-19T10:10:36.802Z,25.30
2017-06-19T10:13:05.246Z,25.40
2017-06-19T10:15:33.660Z,25.70
2017-06-19T10:18:02.110Z,25.70
2017-06-19T10:20:30.527Z,25.70
2017-06-19T10:22:58.988Z,25.70
2017-06-19T10:25:27.807Z,25.60
2017-06-19T10:27:56.229Z,25.60
2017-06-19T10:30:24.690Z,25.50
2017-06-19T10:32:53.132Z,25.70
2017-06-19T10:35:21.563Z,25.60
2017-06-19T10:37:50.003Z,25.80
2017-06-19T10:40:18.451Z,26.20
2017-06-19T10:42:46.986Z,26.40
2017-06-19T10:45:15.424Z,26.30
2017-06-19T10:47:43.857Z,26.60
2017-06-19T10:50:12.274Z,26.90
2017-06-19T10:52:40.702Z,27.10
2017-06-19T10:55:09.137Z,26.80
2017-06-19T10:57:37.563Z,27.00
2017-06-19T11:00:06.002Z,27.10
2017-06-19T11:02:34.438Z,27.00
2017-06-19T11:05:02.885Z,27.20
2017-06-19T11:07:31.336Z,27.50
2017-06-19T11:09:59.773Z,27.60
2017-06-19T11:12:28.206Z,27.10
2017-06-19T11:14:56.640Z,27.20
2017-06-19T11:17:25.059Z,27.60
2017-06-19T11:19:53.500Z,27.90
2017-06-19T11:22:21.947Z,28.00
2017-06-19T11:24:50.381Z,27.60
2017-06-19T11:27:18.799Z,27.70
2017-06-19T11:29:47.267Z,27.80
2017-06-19T11:32:15.701Z,27.60
2017-06-19T11:34:44.128Z,28.00
2017-06-19T11:37:12.578Z,28.30
2017-06-19T11:39:41.011Z,27.00
2017-06-19T11:42:09.515Z,28.70
2017-06-19T11:44:37.937Z,28.50
2017-06-19T11:47:06.395Z,29.00
2017-06-19T11:49:34.834Z,29.10
2017-06-19T11:52:04.024Z,29.30
2017-06-19T11:54:32.518Z,29.30
2017-06-19T11:57:01.720Z,29.40
2017-06-19T11:59:30.953Z,29.20
2017-06-19T12:01:59.379Z,29.20
2017-06-19T12:04:27.818Z,28.90
2017-06-19T12:06:56.263Z,28.40
2017-06-19T12:09:24.699Z,28.50
2017-06-19T12:11:53.121Z,28.40
2017-06-19T12:14:22.269Z,29.30
2017-06-19T12:16:50.682Z,29.90
2017-06-19T12:19:19.131Z,30.10
2017-06-19T12:21:47.652Z,30.40
2017-06-19T12:24:16.084Z,30.60
2017-06-19T12:26:44.548Z,30.20
2017-06-19T12:29:13.039Z,30.60
2017-06-19T12:31:41.469Z,30.30
2017-06-19T12:34:09.918Z,30.80
2017-06-19T12:36:38.332Z,30.70
2017-06-19T12:39:06.758Z,31.00
2017-06-19T12:41:35.220Z,31.10
2017-06-19T12:44:03.648Z,31.60
2017-06-19T12:46:32.085Z,31.90
2017-06-19T12:49:00.539Z,32.20
2017-06-19T12:51:28.954Z,32.20
2017-06-19T12:53:57.456Z,31.80
2017-06-19T12:56:25.902Z,31.80
2017-06-19T12:58:54.330Z,31.70
2017-06-19T13:01:22.768Z,31.50
2017-06-19T13:03:51.198Z,31.00
2017-06-19T13:06:19.670Z,31.10
2017-06-19T13:08:48.112Z,31.30
2017-06-19T13:11:16.536Z,31.90
2017-06-19T13:13:44.950Z,32.10
2017-06-19T13:16:13.387Z,32.00
2017-06-19T13:18:41.835Z,32.20
2017-06-19T13:21:10.270Z,32.80
2017-06-19T13:23:38.708Z,33.10
2017-06-19T13:26:07.159Z,32.90
2017-06-19T13:28:35.579Z,32.70
2017-06-19T13:31:04.099Z,33.10
2017-06-19T13:33:32.531Z,33.10
2017-06-19T13:36:01.733Z,32.70
2017-06-19T13:38:30.167Z,32.90
2017-06-19T13:40:58.578Z,32.60
2017-06-19T13:43:27.035Z,32.30
2017-06-19T13:45:55.515Z,32.70
2017-06-19T13:48:23.993Z,32.10
2017-06-19T13:50:52.820Z,32.30
2017-06-19T13:53:21.246Z,32.60
2017-06-19T13:55:49.712Z,32.70
2017-06-19T13:58:18.147Z,33.50
2017-06-19T14:00:46.563Z,33.50
2017-06-19T14:03:14.999Z,34.10
2017-06-19T14:05:43.411Z,34.00
2017-06-19T14:08:11.851Z,34.30
2017-06-19T14:10:40.286Z,34.40
2017-06-19T14:13:08.736Z,34.30
2017-06-19T14:15:37.838Z,33.70
2017-06-19T14:18:06.252Z,34.00
2017-06-19T14:20:34.690Z,34.40
2017-06-19T14:23:03.138Z,34.40
2017-06-19T14:25:31.550Z,34.40
2017-06-19T14:27:59.999Z,34.70
2017-06-19T14:30:28.436Z,35.00
2017-06-19T14:32:56.866Z,34.60
2017-06-19T14:35:26.939Z,34.60
2017-06-19T14:37:55.364Z,35.20
2017-06-19T14:40:23.804Z,35.50
2017-06-19T14:42:52.278Z,35.40
2017-06-19T14:45:20.704Z,35.40
2017-06-19T14:47:49.147Z,35.20
2017-06-19T14:50:17.695Z,35.00
2017-06-19T14:52:46.171Z,35.10
2017-06-19T14:55:14.613Z,35.30
2017-06-19T14:57:43.031Z,35.40
2017-06-19T15:00:11.467Z,35.60
2017-06-19T15:02:39.958Z,35.60
2017-06-19T15:05:08.396Z,35.40
2017-06-19T15:07:36.850Z,35.40
2017-06-19T15:10:05.276Z,35.10
2017-06-19T15:12:34.432Z,35.30
2017-06-19T15:15:02.864Z,35.70
2017-06-19T15:17:31.321Z,36.00
2017-06-19T15:19:59.738Z,36.00
2017-06-19T15:22:33.676Z,35.30
2017-06-19T15:25:02.100Z,35.40
2017-06-19T15:27:30.556Z,35.70
2017-06-19T15:29:59.001Z,35.90
2017-06-19T15:32:27.422Z,35.80
2017-06-19T15:34:55.674Z,35.80
2017-06-19T15:37:24.207Z,35.70
2017-06-19T15:39:52.639Z,36.10
2017-06-19T15:42:21.104Z,36.00
2017-06-19T15:44:49.540Z,36.00
2017-06-19T15:47:19.031Z,36.00
2017-06-19T15:49:47.449Z,36.20
2017-06-19T15:52:15.899Z,36.30
2017-06-19T15:54:44.334Z,36.20
2017-06-19T15:57:12.871Z,36.00
2017-06-19T15:59:41.291Z,36.20
2017-06-19T16:02:09.729Z,36.30
2017-06-19T16:04:38.183Z,36.10
2017-06-19T16:07:06.619Z,35.90
2017-06-19T16:09:35.753Z,35.90
2017-06-19T16:12:04.176Z,35.90
2017-06-19T16:14:32.633Z,36.40
2017-06-19T16:17:01.078Z,36.60
2017-06-19T16:19:30.244Z,36.50
2017-06-19T16:21:58.752Z,36.80
2017-06-19T16:24:27.206Z,36.50
2017-06-19T16:26:55.641Z,36.20
2017-06-19T16:29:24.175Z,36.20
2017-06-19T16:31:52.592Z,35.70
2017-06-19T16:34:21.048Z,35.20
2017-06-19T16:36:49.499Z,35.80
2017-06-19T16:39:17.983Z,35.70
2017-06-19T16:41:47.176Z,35.90
2017-06-19T16:44:16.083Z,36.00
2017-06-19T16:46:44.923Z,36.10
2017-06-19T16:49:14.219Z,36.20
2017-06-19T16:51:43.036Z,36.10
2017-06-19T16:54:12.248Z,36.50
2017-06-19T16:56:41.074Z,36.30
2017-06-19T16:59:09.941Z,36.70
2017-06-19T17:01:39.147Z,36.50
2017-06-19T17:04:08.346Z,36.10
2017-06-19T17:06:37.568Z,36.20
2017-06-19T17:09:06.406Z,35.40
2017-06-19T17:11:35.297Z,35.70
2017-06-19T17:14:03.755Z,35.60
2017-06-19T17:16:32.215Z,35.30
2017-06-19T17:19:00.640Z,35.20
2017-06-19T17:21:29.091Z,35.20
2017-06-19T17:23:57.928Z,34.80
2017-06-19T17:26:27.143Z,34.20
2017-06-19T17:28:55.969Z,34.00
2017-06-19T17:31:24.428Z,33.60
2017-06-19T17:33:52.895Z,33.80
2017-06-19T17:36:21.740Z,33.60
2017-06-19T17:38:50.620Z,33.70
2017-06-19T17:41:19.095Z,34.10
2017-06-19T17:43:47.903Z,34.00
2017-06-19T17:46:16.747Z,33.60
2017-06-19T17:48:45.955Z,33.20
2017-06-19T17:51:14.875Z,32.80
2017-06-19T17:53:43.723Z,32.50
2017-06-19T17:56:12.140Z,32.30
2017-06-19T17:58:41.007Z,31.80
2017-06-19T18:01:10.211Z,31.40
2017-06-19T18:03:39.028Z,30.90
2017-06-19T18:06:08.275Z,30.70
2017-06-19T18:08:37.099Z,30.40
2017-06-19T18:11:05.932Z,30.00
2017-06-19T18:13:34.378Z,30.10
2017-06-19T18:16:03.183Z,29.70
2017-06-19T18:18:32.456Z,29.40
2017-06-19T18:21:01.284Z,29.20
2017-06-19T18:23:30.099Z,29.20
2017-06-19T18:25:59.324Z,29.00
2017-06-19T18:28:28.516Z,28.90
2017-06-19T18:30:57.340Z,28.90
2017-06-19T18:33:26.531Z,28.80
2017-06-19T18:35:55.382Z,28.60
2017-06-19T18:38:24.590Z,28.50
2017-06-19T18:40:53.423Z,28.40
2017-06-19T18:43:22.651Z,28.30
2017-06-19T18:45:51.490Z,28.20
2017-06-19T18:48:20.670Z,28.10
2017-06-19T18:50:49.511Z,28.10
2017-06-19T18:53:18.350Z,27.90
2017-06-19T18:55:47.557Z,27.90
2017-06-19T18:58:16.747Z,27.70
2017-06-19T19:00:45.973Z,27.40
2017-06-19T19:03:14.824Z,27.60
2017-06-19T19:05:43.687Z,27.50
2017-06-19T19:08:12.892Z,27.40
2017-06-19T19:10:41.735Z,27.30
2017-06-19T19:13:10.952Z,27.20
2017-06-19T19:15:39.789Z,27.20
2017-06-19T19:18:08.234Z,27.10
2017-06-19T19:20:37.087Z,27.00
2017-06-19T19:23:06.289Z,26.90
2017-06-19T19:25:35.122Z,26.80
2017-06-19T19:28:04.111Z,26.60
2017-06-19T19:30:33.345Z,26.50
2017-06-19T19:33:02.177Z,26.40
2017-06-19T19:35:30.647Z,26.40
2017-06-19T19:37:59.090Z,26.30
2017-06-19T19:40:27.500Z,26.20
2017-06-19T19:42:56.341Z,26.10
2017-06-19T19:45:25.566Z,26.10
2017-06-19T19:47:54.410Z,26.00
2017-06-19T19:50:23.595Z,25.80
2017-06-19T19:52:52.471Z,25.70
2017-06-19T19:55:21.690Z,25.60
2017-06-19T19:57:50.548Z,25.40
2017-06-19T20:00:18.987Z,25.30
2017-06-19T20:02:47.228Z,25.20
2017-06-19T20:05:15.679Z,25.10
2017-06-19T20:07:44.867Z,25.00
2017-06-19T20:10:13.727Z,24.90
2017-06-19T20:12:42.937Z,24.80
2017-06-19T20:15:11.789Z,24.60
2017-06-19T20:17:40.980Z,24.50
2017-06-19T20:20:09.889Z,24.30
2017-06-19T20:22:39.100Z,24.30
2017-06-19T20:25:07.973Z,24.30
2017-06-19T20:27:36.816Z,24.10
2017-06-19T20:30:06.036Z,24.10
2017-06-19T20:32:34.891Z,24.00
2017-06-19T20:35:04.129Z,23.80
2017-06-19T20:37:32.967Z,23.60
2017-06-19T20:40:02.179Z,23.40
2017-06-19T20:42:31.008Z,23.40
2017-06-19T20:44:59.439Z,23.20
2017-06-19T20:47:28.280Z,23.10
2017-06-19T20:49:57.483Z,23.10
2017-06-19T20:52:26.832Z,23.00
2017-06-19T20:54:56.056Z,22.90
2017-06-19T20:57:24.891Z,22.70
2017-06-19T20:59:53.421Z,22.40
2017-06-19T21:02:22.606Z,22.30
2017-06-19T21:04:51.424Z,22.20
2017-06-19T21:07:19.863Z,22.20
2017-06-19T21:09:48.682Z,22.20
2017-06-19T21:12:17.994Z,22.30
2017-06-19T21:14:46.971Z,22.10
2017-06-19T21:17:15.814Z,22.10
2017-06-19T21:19:45.093Z,22.20
2017-06-19T21:22:13.927Z,22.20
2017-06-19T21:24:43.134Z,22.00
2017-06-19T21:27:12.019Z,21.70
2017-06-19T21:29:41.016Z,21.50
2017-06-19T21:32:10.209Z,21.40
2017-06-19T21:34:39.038Z,21.50
2017-06-19T21:37:08.254Z,21.60
2017-06-19T21:39:37.465Z,21.70
2017-06-19T21:42:06.318Z,21.70
2017-06-19T21:44:35.463Z,21.60
2017-06-19T21:47:04.290Z,21.50
2017-06-19T21:49:33.472Z,21.60
2017-06-19T21:52:02.698Z,21.60
2017-06-19T21:54:31.565Z,21.50
2017-06-19T21:57:00.019Z,21.50
2017-06-19T21:59:28.858Z,21.30
2017-06-19T22:01:57.688Z,21.10
2017-06-19T22:04:26.944Z,20.90
2017-06-19T22:06:56.146Z,20.80
2017-06-19T22:09:25.314Z,20.80
2017-06-19T22:11:53.743Z,20.80
2017-06-19T22:14:22.595Z,20.60
2017-06-19T22:16:51.426Z,20.50
2017-06-19T22:19:20.672Z,20.40
2017-06-19T22:21:54.872Z,20.20
2017-06-19T22:24:23.713Z,20.10
2017-06-19T22:26:52.615Z,20.10
2017-06-19T22:29:21.457Z,20.30
2017-06-19T22:31:50.310Z,20.20
2017-06-19T22:34:18.774Z,20.20
2017-06-19T22:36:47.250Z,20.40
2017-06-19T22:39:16.430Z,20.30
2017-06-19T22:41:45.276Z,20.30
2017-06-19T22:44:14.099Z,20.30
2017-06-19T22:46:43.316Z,20.20
2017-06-19T22:49:12.123Z,20.00
2017-06-19T22:51:40.946Z,19.80
2017-06-19T22:54:10.147Z,19.60
2017-06-19T22:56:38.972Z,19.50
2017-06-19T22:59:08.253Z,19.60
2017-06-19T23:01:37.079Z,19.50
2017-06-19T23:04:05.523Z,19.50
2017-06-19T23:06:34.032Z,19.70
2017-06-19T23:09:02.466Z,19.70
2017-06-19T23:11:30.899Z,19.70
2017-06-19T23:13:59.331Z,19.40
2017-06-19T23:16:27.777Z,19.30
2017-06-19T23:18:56.219Z,19.30
2017-06-19T23:21:24.655Z,19.20
2017-06-19T23:23:53.854Z,19.20
2017-06-19T23:26:22.995Z,19.10
2017-06-19T23:28:52.984Z,19.40
2017-06-19T23:31:22.182Z,19.60
2017-06-19T23:33:50.659Z,19.50
2017-06-19T23:36:19.865Z,19.50
2017-06-19T23:38:48.300Z,19.40
2017-06-19T23:41:16.802Z,19.40
2017-06-19T23:43:45.418Z,19.30
2017-06-19T23:46:13.871Z,19.20
2017-06-19T23:48:42.372Z,19.20
2017-06-19T23:51:11.507Z,19.10
2017-06-19T23:53:39.933Z,19.00
2017-06-19T23:56:08.347Z,19.00
2017-06-19T23:58:36.819Z,19.00
